Time;durP1;ratioP1;P1;durP2;ratioP2;P2;SDS_P1;SDS_P2;PMS_P1;PMS_P2;Temp;Humidity;BMP_temperature;BMP_pressure;BME280_temperature;BME280_humidity;BME280_pressure;Samples;Min_cycle;Max_cycle;Signal;HPM_P1;HPM_P2
2023/10/20 00:02:48;;;;;;;8.63;5.30;;;;;;;13.54;100.00;98474.03;5332314;22;20057;-84
2023/10/20 00:05:14;;;;;;;8.70;5.03;;;;;;;13.54;100.00;98481.84;5073891;28;20024;-84
2023/10/20 00:07:42;;;;;;;8.73;5.30;;;;;;;13.55;100.00;98488.75;5075752;28;20107;-84
2023/10/20 00:10:09;;;;;;;9.43;4.90;;;;;;;13.56;100.00;98483.44;5075665;28;20044;-84
2023/10/20 00:12:35;;;;;;;8.90;4.93;;;;;;;13.52;100.00;98474.16;5074709;28;20381;-84
2023/10/20 00:17:36;;;;;;;8.65;5.10;;;;;;;13.63;100.00;98473.44;5256978;22;20056;-85
2023/10/20 00:20:01;;;;;;;18.00;9.83;;;;;;;13.54;100.00;98463.63;5074689;28;20028;-85
2023/10/20 00:22:30;;;;;;;15.87;9.30;;;;;;;13.49;100.00;98453.50;5075251;28;20078;-85
2023/10/20 00:24:55;;;;;;;13.80;7.57;;;;;;;13.55;100.00;98458.31;5075186;28;20491;-85
2023/10/20 00:27:45;;;;;;;18.57;10.23;;;;;;;13.52;100.00;98450.69;5074096;28;20060;-85
2023/10/20 00:30:11;;;;;;;18.27;11.15;;;;;;;13.40;100.00;98434.09;5055032;28;20488;-84
2023/10/20 00:32:40;;;;;;;19.40;10.25;;;;;;;13.34;100.00;98413.63;5074418;28;20024;-85
2023/10/20 00:35:33;;;;;;;20.02;11.98;;;;;;;13.42;100.00;98428.78;5075104;28;20392;-84
2023/10/20 00:38:36;;;;;;;19.58;11.77;;;;;;;13.42;100.00;98432.22;5074924;28;20028;-85
2023/10/20 00:41:13;;;;;;;18.65;10.80;;;;;;;13.31;100.00;98403.41;5074461;28;20028;-85
2023/10/20 00:50:57;;;;;;;19.02;10.73;;;;;;;13.31;100.00;98384.34;5050925;28;20111;-85
2023/10/20 00:53:50;;;;;;;20.42;12.10;;;;;;;13.29;100.00;98384.44;5074931;28;20033;-85
2023/10/20 00:56:16;;;;;;;20.80;11.60;;;;;;;13.23;100.00;98369.22;5074544;28;20032;-84
2023/10/20 00:59:28;;;;;;;22.23;13.88;;;;;;;13.26;100.00;98374.25;5074552;28;20032;-84
2023/10/20 01:02:30;;;;;;;22.45;12.27;;;;;;;13.25;100.00;98369.97;5074212;28;20047;-85
2023/10/20 01:04:56;;;;;;;19.38;11.50;;;;;;;13.25;100.00;98352.56;5074588;28;20106;-85
2023/10/20 01:07:27;;;;;;;18.70;10.82;;;;;;;13.17;100.00;98346.19;5074441;28;20070;-84
2023/10/20 01:10:05;;;;;;;18.17;10.43;;;;;;;13.26;100.00;98353.41;5073923;28;20024;-84
2023/10/20 01:12:34;;;;;;;20.95;12.05;;;;;;;13.15;100.00;98333.25;5074591;28;20032;-84
2023/10/20 01:15:05;;;;;;;18.55;10.30;;;;;;;13.13;100.00;98316.91;5073174;28;20016;-84
2023/10/20 01:17:39;;;;;;;20.23;11.70;;;;;;;13.21;100.00;98324.22;5073626;28;20393;-84
2023/10/20 01:20:06;;;;;;;21.65;12.02;;;;;;;13.23;100.00;98330.97;5074341;28;20036;-84
2023/10/20 01:22:52;;;;;;;21.17;12.23;;;;;;;13.15;100.00;98309.81;5073812;28;20070;-84
2023/10/20 01:25:27;;;;;;;21.00;12.95;;;;;;;13.10;100.00;98294.50;5073909;28;20077;-84
2023/10/20 01:28:10;;;;;;;21.05;12.23;;;;;;;13.17;100.00;98302.75;5073673;28;20032;-84
2023/10/20 01:30:36;;;;;;;21.08;12.65;;;;;;;13.12;100.00;98292.66;5073807;28;20028;-84
2023/10/20 01:33:07;;;;;;;20.60;12.43;;;;;;;13.26;100.00;98302.13;5074050;28;20029;-84
2023/10/20 01:35:32;;;;;;;19.55;11.52;;;;;;;13.23;100.00;98301.50;5073893;28;20021;-84
2023/10/20 01:38:15;;;;;;;20.37;12.47;;;;;;;13.18;100.00;98296.59;5073417;28;20058;-84
2023/10/20 01:41:03;;;;;;;19.20;10.77;;;;;;;13.24;100.00;98306.59;5074157;28;20021;-83
2023/10/20 01:43:28;;;;;;;18.23;9.70;;;;;;;13.17;100.00;98291.50;5072949;28;20024;-84
2023/10/20 01:46:09;;;;;;;22.80;13.63;;;;;;;13.15;100.00;98288.19;5073788;28;20036;-84
2023/10/20 01:48:34;;;;;;;21.83;13.20;;;;;;;13.15;100.00;98293.38;5073613;28;20020;-83
2023/10/20 01:51:12;;;;;;;22.37;13.53;;;;;;;13.17;100.00;98288.91;5087593;22;20055;-84
2023/10/20 01:53:46;;;;;;;20.95;12.45;;;;;;;13.14;100.00;98269.09;5073420;28;20032;-84
2023/10/20 01:56:20;;;;;;;20.40;11.73;;;;;;;13.24;100.00;98275.34;5073249;28;20032;-84
2023/10/20 01:58:45;;;;;;;21.42;12.32;;;;;;;13.27;100.00;98282.16;5056181;28;20100;-84
2023/10/20 02:01:33;;;;;;;21.07;12.10;;;;;;;13.28;100.00;98286.41;5073365;28;20438;-84
2023/10/20 02:04:17;;;;;;;19.73;11.20;;;;;;;13.16;100.00;98254.19;5073086;28;20024;-83
2023/10/20 02:06:43;;;;;;;20.73;11.65;;;;;;;13.22;100.00;98250.34;5073397;28;20033;-83
2023/10/20 02:09:18;;;;;;;21.73;13.03;;;;;;;13.12;100.00;98231.91;5073129;28;20023;-83
2023/10/20 02:11:44;;;;;;;20.60;12.35;;;;;;;13.20;100.00;98240.06;5071582;28;20055;-84
2023/10/20 02:14:31;;;;;;;20.37;12.20;;;;;;;13.24;100.00;98243.28;5073025;28;20050;-84
2023/10/20 02:17:16;;;;;;;20.65;12.13;;;;;;;13.25;100.00;98248.38;5073241;28;20078;-84
2023/10/20 02:19:42;;;;;;;18.35;10.30;;;;;;;13.18;100.00;98238.47;5072396;28;20363;-84
2023/10/20 02:22:07;;;;;;;18.30;9.57;;;;;;;13.25;100.00;98243.16;5072673;28;20147;-84
2023/10/20 02:24:47;;;;;;;19.63;11.00;;;;;;;13.21;100.00;98240.88;5073240;28;20480;-83
2023/10/20 02:27:36;;;;;;;21.02;11.77;;;;;;;13.25;100.00;98232.75;5071609;28;20032;-83
2023/10/20 02:30:03;;;;;;;19.90;10.80;;;;;;;13.21;100.00;98223.50;5080182;22;20049;-84
2023/10/20 02:32:28;;;;;;;20.50;12.10;;;;;;;13.21;100.00;98217.44;5071891;28;20024;-83
2023/10/20 02:34:56;;;;;;;20.70;12.00;;;;;;;13.20;100.00;98208.81;5402515;22;20132;-83
2023/10/20 02:37:21;;;;;;;20.33;11.90;;;;;;;13.13;100.00;98194.50;5012969;28;20467;-83
2023/10/20 02:40:11;;;;;;;20.93;12.30;;;;;;;13.17;100.00;98198.59;5012486;28;20041;-84
2023/10/20 02:42:37;;;;;;;22.38;12.93;;;;;;;13.12;100.00;98196.28;5013207;28;20029;-84
2023/10/20 02:45:10;;;;;;;20.13;12.20;;;;;;;13.04;100.00;98167.34;5012822;28;20033;-84
2023/10/20 02:47:36;;;;;;;20.90;11.68;;;;;;;13.05;100.00;98173.38;5011910;28;20076;-83
2023/10/20 02:50:02;;;;;;;19.50;11.68;;;;;;;13.12;100.00;98185.03;5012993;28;20496;-83
2023/10/20 02:52:38;;;;;;;18.83;10.40;;;;;;;13.11;100.00;98179.00;5013304;28;20037;-84
2023/10/20 02:55:53;;;;;;;17.10;9.57;;;;;;;13.14;100.00;98167.53;5011970;28;20057;-84
2023/10/20 02:58:19;;;;;;;21.02;12.80;;;;;;;12.98;100.00;98137.38;4993355;28;20038;-84
2023/10/20 03:00:46;;;;;;;19.97;10.77;;;;;;;13.06;100.00;98149.81;5413519;23;20002;-83
2023/10/20 03:03:13;;;;;;;21.45;12.93;;;;;;;13.09;100.00;98154.84;5111833;28;20475;-83
2023/10/20 03:05:43;;;;;;;20.55;12.55;;;;;;;13.07;100.00;98154.09;5113088;28;20027;-84
2023/10/20 03:08:08;;;;;;;21.20;13.18;;;;;;;13.02;100.00;98129.31;5117572;22;20091;-83
2023/10/20 03:10:40;;;;;;;23.33;13.43;;;;;;;12.96;100.00;98120.16;5012846;28;20036;-84
2023/10/20 03:13:05;;;;;;;22.70;13.57;;;;;;;12.94;100.00;98101.25;5012703;28;20363;-83
2023/10/20 03:15:31;;;;;;;22.00;13.27;;;;;;;13.04;100.00;98117.03;5012252;28;20018;-84
2023/10/20 03:17:58;;;;;;;23.15;13.05;;;;;;;13.02;100.00;98111.94;5012999;28;20072;-84
2023/10/20 03:20:28;;;;;;;20.35;11.60;;;;;;;13.01;100.00;98115.47;5012543;28;20045;-83
2023/10/20 03:22:56;;;;;;;21.38;12.85;;;;;;;13.00;100.00;98121.63;5012078;28;20036;-84
2023/10/20 03:25:22;;;;;;;19.83;11.57;;;;;;;12.97;100.00;98114.88;5012416;28;20022;-84
2023/10/20 03:27:47;;;;;;;19.97;10.80;;;;;;;13.09;100.00;98120.16;5012341;28;20030;-83
2023/10/20 03:30:15;;;;;;;21.03;12.70;;;;;;;13.04;100.00;98120.50;5011841;28;20026;-83
2023/10/20 03:32:40;;;;;;;19.17;10.77;;;;;;;13.04;100.00;98115.28;5012829;28;20272;-83
2023/10/20 03:35:07;;;;;;;19.60;11.43;;;;;;;13.04;100.00;98099.66;5012419;28;20029;-83
2023/10/20 03:37:32;;;;;;;20.70;11.50;;;;;;;13.07;100.00;98094.22;5011986;28;20072;-83
2023/10/20 03:39:57;;;;;;;21.57;12.87;;;;;;;13.01;100.00;98086.00;5015079;28;20025;-83
2023/10/20 03:42:23;;;;;;;22.07;13.30;;;;;;;13.02;100.00;98079.84;5016382;28;20021;-83
2023/10/20 03:44:48;;;;;;;23.07;14.57;;;;;;;12.99;100.00;98080.91;5029108;23;20049;-83
2023/10/20 03:47:17;;;;;;;20.33;12.10;;;;;;;13.00;100.00;98087.78;5035888;28;20036;-83
2023/10/20 03:49:42;;;;;;;18.73;10.43;;;;;;;13.04;100.00;98098.81;5035410;28;20401;-83
2023/10/20 03:52:11;;;;;;;20.50;12.20;;;;;;;13.02;100.00;98098.06;5036055;28;20017;-83
2023/10/20 03:54:40;;;;;;;18.10;10.23;;;;;;;13.04;100.00;98094.44;5036206;28;20022;-84
2023/10/20 03:57:05;;;;;;;20.50;11.55;;;;;;;12.99;100.00;98067.88;5034363;28;20521;-83
2023/10/20 03:59:32;;;;;;;20.20;11.40;;;;;;;13.01;100.00;98047.78;5035920;28;20101;-84
2023/10/20 04:01:57;;;;;;;23.80;14.10;;;;;;;12.91;100.00;98060.59;5035725;28;20028;-84
2023/10/20 04:04:22;;;;;;;21.33;11.93;;;;;;;12.95;100.00;98069.88;5035178;28;20385;-83
2023/10/20 04:06:49;;;;;;;20.53;11.73;;;;;;;12.96;100.00;98068.94;5035768;28;20445;-84
2023/10/20 04:09:17;;;;;;;19.65;11.18;;;;;;;13.00;100.00;98068.75;5035820;28;20068;-83
2023/10/20 04:11:43;;;;;;;19.40;10.57;;;;;;;13.00;100.00;98066.13;5035151;28;20389;-83
2023/10/20 04:14:08;;;;;;;22.03;12.97;;;;;;;12.98;100.00;98053.22;5035682;28;20121;-84
2023/10/20 04:16:39;;;;;;;20.13;11.87;;;;;;;13.01;100.00;98032.19;5035847;28;20029;-83
2023/10/20 04:19:07;;;;;;;23.75;14.70;;;;;;;12.91;100.00;98028.56;5032857;28;20034;-84
2023/10/20 04:21:32;;;;;;;20.90;12.43;;;;;;;12.94;100.00;98029.16;5035880;28;20065;-83
2023/10/20 04:23:58;;;;;;;23.13;14.03;;;;;;;12.93;100.00;98017.09;5035632;28;20056;-84
2023/10/20 04:26:23;;;;;;;20.93;12.60;;;;;;;12.93;100.00;98013.66;5033967;28;20120;-83
2023/10/20 05:01:21;;;;;;;23.85;15.93;;;;;;;12.91;100.00;97929.66;5033674;28;20377;-83
2023/10/20 05:03:53;;;;;;;24.02;15.13;;;;;;;12.88;100.00;97927.25;5034955;28;20092;-84
2023/10/20 05:06:27;;;;;;;23.55;14.65;;;;;;;12.91;100.00;97927.84;5034418;28;20143;-84
2023/10/20 05:08:53;;;;;;;25.40;16.55;;;;;;;12.88;100.00;97914.25;5033881;28;20496;-85
2023/10/20 05:11:19;;;;;;;26.98;18.23;;;;;;;12.85;100.00;97902.28;5055887;23;20500;-84
2023/10/20 05:13:47;;;;;;;25.87;18.13;;;;;;;12.87;100.00;97908.22;5074556;28;20028;-84
2023/10/20 05:16:13;;;;;;;25.65;17.20;;;;;;;12.82;100.00;97902.50;5073294;28;20103;-84
2023/10/20 05:18:39;;;;;;;26.30;18.07;;;;;;;12.86;100.00;97906.56;5074145;28;20099;-84
2023/10/20 05:21:06;;;;;;;22.80;14.55;;;;;;;12.84;100.00;97898.03;5073164;28;20092;-83
2023/10/20 05:23:33;;;;;;;23.70;15.10;;;;;;;12.88;100.00;97888.22;5074479;28;20023;-84
2023/10/20 05:26:02;;;;;;;24.77;16.92;;;;;;;12.87;100.00;97892.59;5067982;22;20049;-84
2023/10/20 05:28:29;;;;;;;28.05;19.30;;;;;;;12.83;100.00;97880.75;5053396;28;20545;-84
2023/10/20 05:30:54;;;;;;;26.15;18.83;;;;;;;12.83;100.00;97875.53;5054294;28;20041;-84
2023/10/20 05:33:20;;;;;;;26.27;18.80;;;;;;;12.82;100.00;97885.13;5053701;28;20025;-83
2023/10/20 05:35:45;;;;;;;25.80;17.40;;;;;;;12.86;100.00;97892.69;5053027;28;20446;-84
2023/10/20 05:38:10;;;;;;;26.23;19.03;;;;;;;12.86;100.00;97892.69;5053971;28;20509;-84
2023/10/20 05:40:36;;;;;;;24.50;16.50;;;;;;;12.91;100.00;97896.63;5053920;28;20095;-84
2023/10/20 05:43:08;;;;;;;28.40;20.67;;;;;;;12.87;100.00;97902.16;5053019;28;20037;-83
2023/10/20 05:45:37;;;;;;;28.80;20.20;;;;;;;12.88;100.00;97909.03;5053702;28;20492;-84
2023/10/20 05:48:05;;;;;;;26.65;19.17;;;;;;;12.89;100.00;97893.28;5053441;28;20033;-84
2023/10/20 05:50:33;;;;;;;25.98;18.85;;;;;;;12.88;100.00;97883.84;5052959;28;20481;-84
2023/10/20 05:52:59;;;;;;;25.92;18.52;;;;;;;12.90;100.00;97886.34;5053578;28;20025;-84
2023/10/20 05:55:24;;;;;;;28.07;21.30;;;;;;;12.85;100.00;97881.47;5053000;28;20543;-83
2023/10/20 05:57:57;;;;;;;26.17;19.27;;;;;;;12.91;100.00;97886.22;5052863;28;20075;-83
2023/10/20 06:00:30;;;;;;;28.13;19.77;;;;;;;12.88;100.00;97878.66;5053239;28;20100;-84
2023/10/20 06:02:58;;;;;;;25.65;18.10;;;;;;;12.94;100.00;97870.38;5052876;28;20082;-83
2023/10/20 06:05:24;;;;;;;23.73;16.10;;;;;;;12.84;100.00;97856.38;5052655;28;20045;-83
2023/10/20 06:07:49;;;;;;;27.23;18.37;;;;;;;12.94;100.00;97866.97;5053108;28;20067;-87
2023/10/20 06:10:24;;;;;;;26.77;18.43;;;;;;;12.89;100.00;97859.47;5052857;28;20028;-89
2023/10/20 06:12:51;;;;;;;27.92;19.60;;;;;;;12.88;100.00;97855.22;5057299;28;20017;-90
2023/10/20 06:15:47;;;;;;;26.05;18.52;;;;;;;12.90;100.00;97849.91;5057334;28;20034;-90
2023/10/20 06:18:12;;;;;;;25.67;18.52;;;;;;;12.90;100.00;97862.91;5055789;28;20028;-90
2023/10/20 06:20:56;;;;;;;25.43;17.13;;;;;;;12.85;100.00;97865.84;5055507;28;20520;-91
2023/10/20 06:26:07;;;;;;;26.05;17.83;;;;;;;12.83;100.00;97860.72;5016212;28;20068;-90
2023/10/20 06:28:32;;;;;;;23.97;16.17;;;;;;;12.83;100.00;97841.69;5054184;28;20458;-90
2023/10/20 06:31:00;;;;;;;25.23;17.30;;;;;;;12.89;100.00;97840.41;5054037;28;20050;-90
2023/10/20 06:33:32;;;;;;;22.85;15.25;;;;;;;12.94;100.00;97853.94;5053419;28;20055;-90
2023/10/20 06:36:05;;;;;;;24.67;17.08;;;;;;;12.94;100.00;97856.56;5053761;28;20488;-90
2023/10/20 06:38:30;;;;;;;22.80;15.57;;;;;;;12.95;100.00;97859.03;5053168;28;20120;-90
2023/10/20 06:40:57;;;;;;;26.70;20.30;;;;;;;12.90;100.00;97866.34;5053435;28;20053;-89
2023/10/20 06:43:23;;;;;;;27.20;20.55;;;;;;;12.90;100.00;97865.50;5053664;28;20343;-90
2023/10/20 06:46:00;;;;;;;29.38;21.55;;;;;;;12.88;100.00;97863.03;5053418;28;20021;-91
2023/10/20 06:48:28;;;;;;;27.70;20.45;;;;;;;12.87;100.00;97857.91;5053551;28;20355;-85
2023/10/20 06:50:54;;;;;;;25.58;18.17;;;;;;;12.93;100.00;97845.28;5063978;28;20032;-82
2023/10/20 06:53:20;;;;;;;25.63;19.17;;;;;;;12.91;100.00;97851.56;5071864;28;20032;-85
2023/10/20 06:55:48;;;;;;;27.60;20.67;;;;;;;12.90;100.00;97848.09;5054830;28;20053;-83
2023/10/20 06:58:17;;;;;;;25.90;19.52;;;;;;;12.88;100.00;97837.00;5072799;28;20384;-82
2023/10/20 07:00:44;;;;;;;26.02;19.30;;;;;;;12.87;100.00;97835.34;5072085;28;20103;-83
2023/10/20 07:03:09;;;;;;;;;;;;;;;12.90;100.00;97834.28;5073056;28;20029;-82
2023/10/20 07:05:37;;;;;;;25.80;18.60;;;;;;;12.91;100.00;97831.56;5073004;28;19923;-82
2023/10/20 07:08:04;;;;;;;26.83;19.88;;;;;;;12.90;100.00;97837.69;5071960;28;20024;-82
2023/10/20 07:10:32;;;;;;;24.95;18.27;;;;;;;12.90;100.00;97829.06;5072621;28;20544;-82
2023/10/20 07:12:58;;;;;;;25.52;17.95;;;;;;;12.91;100.00;97838.53;5072675;28;20092;-82
2023/10/20 07:15:24;;;;;;;23.85;16.95;;;;;;;12.91;100.00;97830.75;5075077;28;20032;-82
2023/10/20 07:17:50;;;;;;;25.60;18.20;;;;;;;12.89;100.00;97836.03;5076436;28;20388;-82
2023/10/20 07:20:15;;;;;;;25.17;17.03;;;;;;;12.90;100.00;97837.69;5076198;28;20099;-81
2023/10/20 07:22:43;;;;;;;24.33;16.93;;;;;;;12.89;100.00;97838.63;5075971;28;20107;-81
2023/10/20 07:25:08;;;;;;;23.83;16.63;;;;;;;12.91;100.00;97843.75;5070148;28;20050;-82
2023/10/20 07:27:34;;;;;;;23.13;15.63;;;;;;;12.89;100.00;97833.44;5055736;28;20029;-81
2023/10/20 07:29:59;;;;;;;23.97;16.53;;;;;;;12.86;100.00;97830.22;5056135;28;20040;-81
2023/10/20 07:32:25;;;;;;;22.97;15.40;;;;;;;12.85;100.00;97832.00;5056190;28;20394;-81
2023/10/20 07:34:50;;;;;;;23.37;15.53;;;;;;;12.85;100.00;97831.16;5055734;28;20736;-81
2023/10/20 07:37:16;;;;;;;23.37;15.70;;;;;;;12.74;100.00;97821.56;5056211;28;20383;-81
2023/10/20 07:39:41;;;;;;;22.70;15.57;;;;;;;12.78;100.00;97829.03;5056432;28;20025;-81
2023/10/20 07:42:07;;;;;;;22.93;14.07;;;;;;;12.78;100.00;97826.44;5055184;28;20043;-81
2023/10/20 07:44:32;;;;;;;22.33;14.43;;;;;;;12.79;100.00;97822.88;5056391;28;20075;-83
2023/10/20 07:47:00;;;;;;;20.90;13.80;;;;;;;12.78;100.00;97817.78;5056164;28;20475;-84
2023/10/20 07:49:25;;;;;;;23.20;15.43;;;;;;;12.72;100.00;97816.44;5054989;28;20423;-83
2023/10/20 07:51:52;;;;;;;20.80;12.87;;;;;;;12.76;100.00;97820.50;5055898;28;20025;-83
2023/10/20 07:54:17;;;;;;;22.33;14.10;;;;;;;12.75;100.00;97813.63;5041201;28;20021;-84
2023/10/20 07:56:42;;;;;;;22.33;14.20;;;;;;;12.73;100.00;97807.69;5035164;28;20047;-84
2023/10/20 07:59:07;;;;;;;20.40;12.40;;;;;;;12.72;100.00;97806.03;5042114;28;20405;-83
2023/10/20 08:01:33;;;;;;;19.27;11.43;;;;;;;12.70;100.00;97797.53;5055377;28;20103;-83
2023/10/20 08:03:58;;;;;;;18.70;11.40;;;;;;;12.71;100.00;97788.78;5054953;28;20106;-81
2023/10/20 08:06:24;;;;;;;18.83;10.83;;;;;;;12.73;100.00;97793.88;5055382;28;20265;-81
2023/10/20 08:08:50;;;;;;;20.27;12.07;;;;;;;12.65;100.00;97799.63;5056252;28;20025;-81
2023/10/20 08:11:15;;;;;;;20.47;12.17;;;;;;;12.58;100.00;97790.63;5054333;28;20025;-81
2023/10/20 08:13:41;;;;;;;18.70;10.83;;;;;;;12.59;100.00;97792.28;5055704;28;20017;-82
2023/10/20 08:16:06;;;;;;;18.63;10.43;;;;;;;12.59;100.00;97800.09;5054995;28;20017;-80
2023/10/20 08:18:35;;;;;;;18.77;9.83;;;;;;;12.56;100.00;97800.31;5054766;28;20021;-82
2023/10/20 08:21:08;;;;;;;17.40;9.48;;;;;;;12.57;100.00;97801.97;5026680;28;20045;-82
2023/10/20 08:23:35;;;;;;;17.70;9.75;;;;;;;12.54;100.00;97808.22;5035055;28;20036;-82
2023/10/20 08:26:01;;;;;;;15.40;8.45;;;;;;;12.56;100.00;97808.09;5038662;28;20037;-82
2023/10/20 08:28:26;;;;;;;16.87;9.37;;;;;;;12.50;100.00;97802.38;5043735;28;20021;-81
2023/10/20 08:31:07;;;;;;;16.90;9.30;;;;;;;12.44;100.00;97794.22;5048364;28;20557;-82
2023/10/20 08:33:33;;;;;;;17.23;9.27;;;;;;;12.37;100.00;97796.44;5045840;28;20024;-81
2023/10/20 08:36:00;;;;;;;16.65;9.15;;;;;;;12.35;100.00;97804.31;5045999;28;20473;-82
2023/10/20 08:38:26;;;;;;;16.50;8.77;;;;;;;12.36;100.00;97805.19;5042504;28;20148;-82
2023/10/20 08:40:51;;;;;;;15.57;8.27;;;;;;;12.32;100.00;97796.75;5041087;28;20071;-82
2023/10/20 08:43:16;;;;;;;16.50;8.60;;;;;;;12.24;100.00;97793.84;5043033;28;20535;-81
2023/10/20 08:45:43;;;;;;;15.17;8.07;;;;;;;12.25;100.00;97782.53;5044191;28;20032;-81
2023/10/20 08:48:08;;;;;;;15.70;8.15;;;;;;;12.18;100.00;97782.13;5045313;28;20047;-81
2023/10/20 08:50:35;;;;;;;15.00;8.00;;;;;;;12.22;100.00;97793.13;5045588;28;20025;-81
2023/10/20 08:53:04;;;;;;;14.95;8.23;;;;;;;12.19;100.00;97791.59;5053606;28;20028;-79
2023/10/20 08:55:29;;;;;;;14.05;7.32;;;;;;;12.10;100.00;97800.03;5054828;28;20021;-81
2023/10/20 08:57:54;;;;;;;12.70;6.70;;;;;;;11.99;100.00;97792.97;5054650;28;20033;-81
2023/10/20 09:00:20;;;;;;;12.50;6.83;;;;;;;12.01;100.00;97801.50;5053152;28;20120;-80
2023/10/20 09:02:49;;;;;;;9.90;5.97;;;;;;;11.97;100.00;97786.22;5054523;28;20020;-81
2023/10/20 09:05:24;;;;;;;11.05;5.70;;;;;;;12.02;100.00;97787.56;5054518;28;20025;-81
2023/10/20 09:07:53;;;;;;;9.90;5.43;;;;;;;11.92;100.00;97790.91;5053855;28;20051;-82
2023/10/20 09:10:19;;;;;;;10.13;5.30;;;;;;;11.93;100.00;97787.38;5054363;28;20025;-81
2023/10/20 09:12:44;;;;;;;10.67;5.50;;;;;;;11.88;100.00;97792.88;5054363;28;20025;-81
2023/10/20 09:15:11;;;;;;;8.70;4.63;;;;;;;11.90;100.00;97791.84;5053289;28;20074;-81
2023/10/20 09:17:36;;;;;;;6.82;4.25;;;;;;;11.96;100.00;97802.75;5054814;28;20099;-81
2023/10/20 09:20:14;;;;;;;7.03;4.40;;;;;;;11.91;100.00;97795.25;5054075;28;20446;-82
2023/10/20 09:22:39;;;;;;;6.70;4.28;;;;;;;11.86;100.00;97777.41;5054341;28;20036;-82
2023/10/20 09:25:08;;;;;;;7.90;4.40;;;;;;;11.77;100.00;97778.03;5053779;28;20475;-81
2023/10/20 09:27:33;;;;;;;6.80;4.30;;;;;;;11.77;100.00;97775.44;5053544;28;20031;-82
2023/10/20 09:30:00;;;;;;;6.33;4.17;;;;;;;11.72;100.00;97764.53;5053959;28;20425;-82
2023/10/20 09:32:26;;;;;;;6.40;3.80;;;;;;;11.73;100.00;97776.59;5053678;28;20489;-82
2023/10/20 09:34:52;;;;;;;6.03;3.97;;;;;;;11.71;100.00;97783.66;5053347;28;20040;-82
2023/10/20 09:37:20;;;;;;;5.50;3.63;;;;;;;11.73;100.00;97792.16;5052833;28;20025;-82
2023/10/20 09:39:47;;;;;;;4.68;3.58;;;;;;;11.65;100.00;97786.69;5053875;28;20025;-81
2023/10/20 09:42:23;;;;;;;5.30;3.42;;;;;;;11.67;100.00;97790.00;5052934;28;20112;-81
2023/10/20 09:45:08;;;;;;;5.57;3.50;;;;;;;11.54;100.00;97785.66;5054152;28;20028;-81
2023/10/20 09:47:35;;;;;;;4.50;3.40;;;;;;;11.60;100.00;97779.22;5053983;28;20107;-81
2023/10/20 09:50:01;;;;;;;6.22;3.40;;;;;;;11.59;100.00;97778.38;5052870;28;20029;-81
2023/10/20 09:52:29;;;;;;;5.27;3.10;;;;;;;11.58;100.00;97776.72;5053625;28;20381;-81
2023/10/20 09:54:55;;;;;;;5.30;3.00;;;;;;;11.60;100.00;97774.00;5053063;28;20087;-81
2023/10/20 09:57:22;;;;;;;4.22;3.10;;;;;;;11.58;100.00;97775.88;5052637;28;20470;-81
2023/10/20 09:59:54;;;;;;;4.47;3.13;;;;;;;11.55;100.00;97765.69;5053359;28;20500;-81
2023/10/20 10:02:29;;;;;;;3.75;2.95;;;;;;;11.54;100.00;97777.03;5052178;28;20087;-81
2023/10/20 10:04:58;;;;;;;4.53;3.10;;;;;;;11.57;100.00;97775.06;5053779;28;20025;-82
2023/10/20 10:07:34;;;;;;;4.53;3.00;;;;;;;11.53;100.00;97778.78;5053347;28;20036;-82
2023/10/20 10:09:59;;;;;;;4.75;3.20;;;;;;;11.52;100.00;97777.13;5052480;28;20055;-82
2023/10/20 10:12:27;;;;;;;3.93;3.00;;;;;;;11.56;100.00;97776.00;5053128;28;20048;-83
2023/10/20 10:15:07;;;;;;;4.25;2.95;;;;;;;11.59;100.00;97769.75;5053245;28;20028;-82
2023/10/20 10:17:49;;;;;;;4.35;2.88;;;;;;;11.57;100.00;97756.88;5052493;28;20025;-83
2023/10/20 10:20:25;;;;;;;3.88;2.90;;;;;;;11.58;100.00;97763.75;5049192;28;20036;-82
2023/10/20 10:23:04;;;;;;;4.97;3.20;;;;;;;11.65;100.00;97760.72;5053299;28;20024;-82
2023/10/20 10:25:43;;;;;;;4.03;2.60;;;;;;;11.70;100.00;97758.63;5043163;28;20046;-82
2023/10/20 10:28:12;;;;;;;3.10;2.80;;;;;;;11.77;100.00;97753.81;5032927;28;20064;-82
2023/10/20 10:30:39;;;;;;;3.40;2.90;;;;;;;11.78;100.00;97764.13;5032327;28;20022;-82
2023/10/20 10:33:10;;;;;;;3.65;2.70;;;;;;;11.83;100.00;97761.19;5032619;28;20055;-82
2023/10/20 10:35:36;;;;;;;2.70;2.50;;;;;;;11.86;100.00;97748.81;5033116;28;20029;-81
2023/10/20 10:38:03;;;;;;;4.60;3.10;;;;;;;11.90;100.00;97746.81;5031543;28;20026;-82
2023/10/20 10:40:28;;;;;;;;;;;;;;;11.96;100.00;97741.22;5032224;28;20083;-81
2023/10/20 10:42:57;;;;;;;3.10;2.63;;;;;;;11.97;100.00;97739.44;5032912;28;19917;-81
2023/10/20 10:45:27;;;;;;;3.65;2.90;;;;;;;12.00;100.00;97732.28;5031727;28;20022;-82
2023/10/20 10:48:07;;;;;;;4.38;3.50;;;;;;;11.97;100.00;97732.47;5032727;28;20032;-82
2023/10/20 10:50:39;;;;;;;3.72;3.33;;;;;;;11.87;100.00;97723.69;5032486;28;20642;-82
2023/10/20 10:53:04;;;;;;;3.50;2.97;;;;;;;11.89;100.00;97720.03;5031492;28;20057;-82
2023/10/20 10:55:36;;;;;;;3.80;3.40;;;;;;;11.83;100.00;97720.44;5033076;28;20057;-82
2023/10/20 10:58:04;;;;;;;3.38;2.90;;;;;;;11.79;100.00;97710.38;5032549;28;20029;-82
2023/10/20 11:00:30;;;;;;;3.85;3.35;;;;;;;11.73;100.00;97686.50;5032038;28;20025;-82
2023/10/20 11:02:57;;;;;;;3.27;2.97;;;;;;;11.82;100.00;97694.56;5032692;28;20037;-82
2023/10/20 11:05:23;;;;;;;3.17;2.90;;;;;;;11.80;100.00;97686.06;5032287;28;20063;-81
2023/10/20 11:08:14;;;;;;;3.50;3.20;;;;;;;11.85;100.00;97678.78;5031948;28;20056;-82
2023/10/20 11:10:45;;;;;;;3.83;3.40;;;;;;;11.89;100.00;97668.06;5028835;28;20038;-82
2023/10/20 11:13:16;;;;;;;5.63;4.18;;;;;;;11.90;100.00;97671.47;5031633;28;20362;-82
2023/10/20 11:15:41;;;;;;;4.25;3.50;;;;;;;11.97;100.00;97682.25;5033009;28;20030;-83
2023/10/20 11:18:10;;;;;;;4.40;3.10;;;;;;;12.13;100.00;97685.44;5032506;28;20029;-84
2023/10/20 11:20:41;;;;;;;4.93;3.50;;;;;;;12.07;100.00;97678.09;5031836;28;20100;-83
2023/10/20 11:23:07;;;;;;;4.72;3.92;;;;;;;12.05;100.00;97669.56;5032394;28;20029;-83
2023/10/20 11:25:34;;;;;;;4.37;3.97;;;;;;;12.05;100.00;97656.56;5032393;28;20397;-82
2023/10/20 11:28:02;;;;;;;4.40;4.00;;;;;;;12.08;100.00;97669.34;5031264;28;20029;-82
2023/10/20 11:30:32;;;;;;;3.97;3.58;;;;;;;12.10;100.00;97677.88;5032495;28;20029;-82
2023/10/20 11:32:58;;;;;;;3.88;3.30;;;;;;;12.13;100.00;97672.44;5032121;28;20033;-82
2023/10/20 11:35:26;;;;;;;3.43;3.13;;;;;;;12.16;100.00;97682.59;5030587;28;20417;-82
2023/10/20 11:37:56;;;;;;;3.22;2.92;;;;;;;12.21;100.00;97671.91;5032267;28;20033;-81
2023/10/20 11:40:22;;;;;;;2.75;2.55;;;;;;;12.21;100.00;97671.91;5031901;28;20030;-83
2023/10/20 11:42:50;;;;;;;3.03;2.83;;;;;;;12.28;100.00;97667.06;5031616;28;20378;-82
2023/10/20 11:45:16;;;;;;;3.03;2.83;;;;;;;12.27;100.00;97661.03;5031328;28;20049;-83
2023/10/20 11:47:42;;;;;;;5.10;4.60;;;;;;;12.26;100.00;97664.56;5031493;28;20033;-82
2023/10/20 11:50:09;;;;;;;6.97;5.70;;;;;;;12.20;100.00;97647.66;5030856;28;20032;-81
2023/10/20 11:52:41;;;;;;;5.80;5.20;;;;;;;12.23;100.00;97643.19;5025914;28;20040;-82
2023/10/20 11:55:11;;;;;;;6.68;5.55;;;;;;;12.25;100.00;97636.09;5031176;28;20032;-81
2023/10/20 11:57:37;;;;;;;6.47;5.18;;;;;;;12.26;100.00;97630.78;5030727;28;20605;-81
2023/10/20 12:00:07;;;;;;;6.30;5.65;;;;;;;12.27;100.00;97631.63;5032222;28;20033;-82
2023/10/20 12:02:33;;;;;;;9.23;6.95;;;;;;;12.24;100.00;97631.84;5035370;28;20029;-82
2023/10/20 12:05:00;;;;;;;8.88;7.30;;;;;;;12.19;100.00;97633.00;5035786;28;20458;-82
2023/10/20 12:07:25;;;;;;;10.63;7.85;;;;;;;12.18;100.00;97625.31;5035414;28;20112;-82
2023/10/20 12:09:51;;;;;;;10.33;7.93;;;;;;;12.14;100.00;97614.31;5035064;28;20025;-83
2023/10/20 12:12:16;;;;;;;9.93;7.80;;;;;;;12.13;100.00;97625.66;5035327;28;20075;-82